createdAt,value
2023-03-07T00:02:19.872Z,64.70
2023-03-07T00:07:22.619Z,58.22
2023-03-07T00:12:25.459Z,61.53
2023-03-07T00:17:29.683Z,57.10
2023-03-07T00:22:32.413Z,59.35
2023-03-07T00:27:35.471Z,56.58
2023-03-07T00:32:39.674Z,52.88
2023-03-07T00:37:42.484Z,53.03
2023-03-07T00:42:45.425Z,52.58
2023-03-07T00:47:49.765Z,52.10
2023-03-07T00:52:52.534Z,53.95
2023-03-07T00:57:55.476Z,49.55
2023-03-07T01:03:02.098Z,52.00
2023-03-07T01:08:04.976Z,47.17
2023-03-07T01:13:09.869Z,51.53
2023-03-07T01:18:14.670Z,42.70
2023-03-07T01:23:17.637Z,48.25
2023-03-07T01:28:20.582Z,40.97
2023-03-07T01:33:25.122Z,39.65
2023-03-07T01:38:33.785Z,43.40
2023-03-07T01:43:38.895Z,35.95
2023-03-07T01:48:51.776Z,38.30
2023-03-07T01:53:56.681Z,36.28
2023-03-07T01:58:59.678Z,34.17
2023-03-07T02:04:10.379Z,33.90
2023-03-07T02:09:17.969Z,31.80
2023-03-07T02:14:20.781Z,31.27
2023-03-07T02:19:38.445Z,27.33
2023-03-07T02:24:49.294Z,27.52
2023-03-07T02:29:53.867Z,29.92
2023-03-07T02:34:57.287Z,24.52
2023-03-07T02:40:05.194Z,27.05
2023-03-07T02:45:12.485Z,24.98
2023-03-07T02:50:18.261Z,27.05
2023-03-07T02:55:25.264Z,25.30
2023-03-07T03:00:37.038Z,28.88
2023-03-07T03:05:40.104Z,30.98
2023-03-07T03:10:43.057Z,31.42
2023-03-07T03:15:48.177Z,28.50
2023-03-07T03:20:51.336Z,25.83
2023-03-07T03:25:59.321Z,33.45
2023-03-07T03:31:07.242Z,29.00
2023-03-07T03:36:11.882Z,33.17
2023-03-07T03:41:16.946Z,31.45
2023-03-07T03:46:22.563Z,31.20
2023-03-07T03:51:26.200Z,36.03
2023-03-07T03:56:30.664Z,33.15
2023-03-07T04:01:35.016Z,42.53
2023-03-07T04:06:38.044Z,34.95
2023-03-07T04:11:40.958Z,44.05
2023-03-07T04:16:45.236Z,40.83
2023-03-07T04:21:48.096Z,42.70
2023-03-07T04:26:52.502Z,41.13
2023-03-07T04:31:57.482Z,44.88
2023-03-07T04:37:00.445Z,41.60
2023-03-07T04:42:03.341Z,41.00
2023-03-07T04:47:12.314Z,40.90
2023-03-07T04:52:15.182Z,42.75
2023-03-07T04:57:18.327Z,47.33
2023-03-07T05:02:22.915Z,45.65
2023-03-07T05:07:28.997Z,47.42
2023-03-07T05:12:32.257Z,44.90
2023-03-07T05:17:38.108Z,40.03
2023-03-07T05:22:41.145Z,46.13
2023-03-07T05:27:44.369Z,41.50
2023-03-07T05:32:48.887Z,44.03
2023-03-07T05:37:52.516Z,41.13
2023-03-07T05:42:56.019Z,42.95
2023-03-07T05:48:00.733Z,44.92
2023-03-07T05:53:04.395Z,47.63
2023-03-07T05:58:07.937Z,42.60
2023-03-07T06:03:12.276Z,37.30
2023-03-07T06:08:15.892Z,38.50
2023-03-07T06:13:21.405Z,38.15
2023-03-07T06:18:26.404Z,39.20
2023-03-07T06:23:31.331Z,33.25
2023-03-07T06:28:37.422Z,35.30
2023-03-07T06:33:42.077Z,34.42
2023-03-07T06:38:45.289Z,35.50
2023-03-07T06:43:52.492Z,35.00
2023-03-07T06:49:01.025Z,29.73
2023-03-07T06:54:04.489Z,34.72
2023-03-07T06:59:07.968Z,34.47
2023-03-07T07:04:13.961Z,37.17
2023-03-07T07:09:19.686Z,34.15
2023-03-07T07:14:23.605Z,26.75
2023-03-07T07:19:29.166Z,33.85
2023-03-07T07:24:35.052Z,34.50
2023-03-07T07:29:37.848Z,28.38
2023-03-07T07:34:43.977Z,23.95
2023-03-07T07:39:47.164Z,27.83
2023-03-07T07:44:50.452Z,33.13
2023-03-07T07:49:54.697Z,25.83
2023-03-07T07:54:58.046Z,28.20
2023-03-07T08:00:01.051Z,28.88
2023-03-07T08:05:08.103Z,33.63
2023-03-07T08:10:13.475Z,34.67
2023-03-07T08:15:19.940Z,27.65
2023-03-07T08:20:25.654Z,27.90
2023-03-07T08:25:28.556Z,29.27
2023-03-07T08:30:34.018Z,28.15
2023-03-07T08:35:40.101Z,24.83
2023-03-07T08:40:44.504Z,30.98
2023-03-07T08:45:51.392Z,31.00
2023-03-07T08:50:55.849Z,28.85
2023-03-07T08:56:00.820Z,31.83
2023-03-07T09:01:05.061Z,25.27
2023-03-07T09:06:10.706Z,27.02
2023-03-07T09:11:13.879Z,28.10
2023-03-07T09:16:16.737Z,26.77
2023-03-07T09:21:21.407Z,28.50
2023-03-07T09:26:25.076Z,27.48
2023-03-07T09:31:27.912Z,25.92
2023-03-07T09:36:33.045Z,19.98
2023-03-07T09:41:57.002Z,31.00
2023-03-07T09:47:13.430Z,29.52
2023-03-07T09:52:21.162Z,27.95
2023-03-07T09:57:27.552Z,31.83
2023-03-07T10:02:36.157Z,25.60
2023-03-07T10:07:41.158Z,33.35
2023-03-07T10:12:57.969Z,22.65
2023-03-07T10:18:18.045Z,20.83
2023-03-07T10:23:44.350Z,19.83
2023-03-07T10:28:49.269Z,22.70
2023-03-07T10:33:54.893Z,27.67
2023-03-07T10:44:16.105Z,21.00
2023-03-07T10:49:24.110Z,24.27
2023-03-07T10:54:33.180Z,25.77
2023-03-07T10:59:37.314Z,18.63
2023-03-07T11:04:48.151Z,23.33
2023-03-07T11:09:52.381Z,23.00
2023-03-07T11:14:57.984Z,21.70
2023-03-07T11:20:00.798Z,22.27
2023-03-07T11:25:15.749Z,21.70
2023-03-07T11:30:26.241Z,19.55
2023-03-07T11:35:44.074Z,23.20
2023-03-07T11:40:57.306Z,22.27
2023-03-07T11:46:07.040Z,19.02
2023-03-07T11:51:31.744Z,22.08
2023-03-07T11:56:40.869Z,19.38
2023-03-07T12:01:48.866Z,24.83
2023-03-07T12:07:02.678Z,18.55
2023-03-07T12:12:21.536Z,16.98
2023-03-07T12:17:40.132Z,15.18
2023-03-07T12:22:54.149Z,17.25
2023-03-07T12:28:06.933Z,23.15
2023-03-07T12:33:19.029Z,17.80
2023-03-07T12:38:36.570Z,22.08
2023-03-07T12:43:47.437Z,14.27
2023-03-07T12:48:56.188Z,15.55
2023-03-07T12:54:04.545Z,17.25
2023-03-07T12:59:13.879Z,19.33
2023-03-07T13:04:19.407Z,13.40
2023-03-07T13:09:25.570Z,17.92
2023-03-07T13:14:45.411Z,15.13
2023-03-07T13:19:54.524Z,24.38
2023-03-07T13:24:59.162Z,16.50
2023-03-07T13:30:22.980Z,15.23
2023-03-07T13:35:53.566Z,12.82
2023-03-07T13:40:58.579Z,17.55
2023-03-07T13:46:04.272Z,12.60
2023-03-07T13:51:09.129Z,19.25
2023-03-07T13:56:25.214Z,14.23
2023-03-07T14:01:33.726Z,23.23
2023-03-07T14:06:41.749Z,16.02
2023-03-07T14:11:54.644Z,25.60
2023-03-07T14:17:17.212Z,14.80
2023-03-07T14:22:34.560Z,18.60
2023-03-07T14:27:51.402Z,13.60
2023-03-07T14:32:56.766Z,13.75
2023-03-07T14:37:59.562Z,9.55
2023-03-07T14:43:27.109Z,18.67
2023-03-07T14:49:01.364Z,12.25
2023-03-07T14:54:09.208Z,15.90
2023-03-07T14:59:26.306Z,16.75
2023-03-07T15:04:35.737Z,14.98
2023-03-07T15:09:38.705Z,15.30
2023-03-07T15:14:45.467Z,11.88
2023-03-07T15:19:53.714Z,13.73
2023-03-07T15:24:57.534Z,22.73
2023-03-07T15:30:02.172Z,18.45
2023-03-07T15:35:17.767Z,24.35
2023-03-07T15:40:28.197Z,22.00
2023-03-07T15:45:33.295Z,22.17
2023-03-07T15:50:38.821Z,18.05
2023-03-07T15:55:56.813Z,17.85
2023-03-07T16:01:07.816Z,24.15
2023-03-07T16:06:41.257Z,18.52
2023-03-07T16:11:46.052Z,30.70
2023-03-07T16:16:49.454Z,19.75
2023-03-07T16:21:54.606Z,21.85
2023-03-07T16:26:57.920Z,22.38
2023-03-07T16:32:01.984Z,29.67
2023-03-07T16:37:06.504Z,19.80
2023-03-07T16:42:17.288Z,29.70
2023-03-07T16:47:20.671Z,26.63
2023-03-07T16:52:25.807Z,24.25
2023-03-07T16:57:28.673Z,45.65
2023-03-07T17:02:32.749Z,27.75
2023-03-07T17:07:37.324Z,41.97
2023-03-07T17:12:42.523Z,25.05
2023-03-07T17:17:46.367Z,27.83
2023-03-07T17:22:52.074Z,18.92
2023-03-07T17:28:00.598Z,12.10
2023-03-07T17:33:03.808Z,10.52
2023-03-07T17:38:08.276Z,6.88
2023-03-07T17:43:11.723Z,8.68
2023-03-07T17:48:14.593Z,10.85
2023-03-07T17:53:18.881Z,15.95
2023-03-07T17:58:21.870Z,10.90
2023-03-07T18:03:24.823Z,10.57
2023-03-07T18:08:29.388Z,20.08
2023-03-07T18:13:33.402Z,27.83
2023-03-07T18:18:40.201Z,36.50
2023-03-07T18:23:48.349Z,17.40
2023-03-07T18:28:53.303Z,19.67
2023-03-07T18:33:56.438Z,30.92
2023-03-07T18:39:01.109Z,30.58
2023-03-07T18:44:05.514Z,41.10
2023-03-07T18:49:08.374Z,30.77
2023-03-07T18:54:14.126Z,18.75
2023-03-07T18:59:17.779Z,14.73
2023-03-07T19:04:21.392Z,18.60
2023-03-07T19:09:26.669Z,19.45
2023-03-07T19:14:29.885Z,23.73
2023-03-07T19:19:33.477Z,24.83
2023-03-07T19:24:38.082Z,32.20
2023-03-07T19:29:40.998Z,30.88
2023-03-07T19:34:44.406Z,22.67
2023-03-07T19:39:53.941Z,18.80
2023-03-07T19:44:56.900Z,22.58
2023-03-07T19:49:59.727Z,20.50
2023-03-07T19:55:06.484Z,20.35
2023-03-07T20:00:12.652Z,17.53
2023-03-07T20:05:17.256Z,12.70
2023-03-07T20:10:23.678Z,14.23
2023-03-07T20:15:28.739Z,18.50
2023-03-07T20:20:36.664Z,17.90
2023-03-07T20:30:47.747Z,9.33
2023-03-07T20:36:02.168Z,6.95
2023-03-07T20:41:11.004Z,9.02
2023-03-07T20:46:19.765Z,7.68
2023-03-07T20:51:28.463Z,116.43
2023-03-07T20:56:36.274Z,62.33
2023-03-07T21:01:42.071Z,53.28
2023-03-07T21:06:50.524Z,18.80
2023-03-07T21:11:56.473Z,14.55
2023-03-07T21:17:03.173Z,21.92
2023-03-07T21:22:07.837Z,21.30
2023-03-07T21:27:14.687Z,26.77
2023-03-07T21:32:18.289Z,49.75
2023-03-07T21:37:22.128Z,15.38
2023-03-07T21:42:27.722Z,20.80
2023-03-07T21:47:31.109Z,22.80
2023-03-07T21:52:34.045Z,12.73
2023-03-07T21:57:38.742Z,11.65
2023-03-07T22:02:41.715Z,11.82
2023-03-07T22:07:44.944Z,8.68
2023-03-07T22:12:49.704Z,12.18
2023-03-07T22:17:52.608Z,8.23
2023-03-07T22:22:55.387Z,7.97
2023-03-07T22:27:59.658Z,9.63
2023-03-07T22:33:03.022Z,10.90
2023-03-07T22:38:06.107Z,10.65
2023-03-07T22:43:12.617Z,10.68
2023-03-07T22:48:16.660Z,9.30
2023-03-07T22:53:19.668Z,7.72
2023-03-07T22:58:24.692Z,9.85
2023-03-07T23:03:27.484Z,13.20
2023-03-07T23:08:30.400Z,12.10
2023-03-07T23:13:35.152Z,10.88
2023-03-07T23:18:39.034Z,17.90
2023-03-07T23:23:42.888Z,12.00
2023-03-07T23:28:47.320Z,13.77
2023-03-07T23:33:50.276Z,14.30
2023-03-07T23:38:53.265Z,10.45
2023-03-07T23:44:00.069Z,8.60
2023-03-07T23:49:02.962Z,9.05
2023-03-07T23:54:05.739Z,12.80
2023-03-07T23:59:10.215Z,10.75
